Terminal Aerodrome Forecast
Issued by NWS Sterling, VA

Home | Current Version | Previous Version | Text Only | Print | Product List | Glossary On
Versions: 1 2 3 4 5 6 7 8 9 10 11 12 13 14 15 16
296
FTUS41 KLWX 031720
TAFMRB
TAF
KMRB 031720Z 0318/0418 30013G20KT P6SM SCT045 BKN050
     FM032200 30009KT P6SM SCT045 BKN250
     FM040400 29005KT P6SM SCT030 BKN250
     FM041700 00000KT P6SM SCT045 OVC250=

USA.gov is the U.S. government's official web portal to all federal, state and local government web resources and services.